Detalii statie Girov TCE 3 BRAZI [000011A2]

Toti senzorii

Date Temperatura solului [C]Precipitatii [mm]Voltaj baterie [mV]Leaf Wetness [Min]HC Air temperature [C]HC Relative humidity [%]Punctul de roua [C]
medieminmaxsumaultimatimpmedieminmaxmediemediemin
2018-10-13 15:00:00 0 6952 0 19.87 19 21.11 100 19.8 19
2018-10-13 16:00:00 0 6992 0 19.22 18.83 19.8 99.5 19 18.3
2018-10-13 17:00:00 0 6922 0 18.38 18.05 18.85 98.08 17.9 17.7
2018-10-13 18:00:00 0 6766 0 17.19 15.94 18.03 99.41 17 15.9
2018-10-13 19:00:00 0 6660 0 12.61 9.72 15.51 100 12.5 9.7
2018-10-13 20:00:00 0 6610 0 8.27 7.18 9.6 100 8.2 7.1
2018-10-13 21:00:00 0 6572 0 6.54 5.66 7.61 100 6.5 5.6
2018-10-13 22:00:00 0 6562 0 5.7 4.83 6.35 100 5.6 4.8
2018-10-13 23:00:00 0 6542 0 3.94 3.27 4.67 100 3.9 3.2
2018-10-14 00:00:00 0 6532 0 3.28 2.97 3.48 100 3.2 2.9
2018-10-14 01:00:00 0 6522 0 2.65 1.89 3.55 100 2.6 1.8
2018-10-14 02:00:00 0 6532 0 2.08 1.74 2.31 100 2 1.7
2018-10-14 03:00:00 0 6522 0 1.15 0.44 1.79 100 1.1 0.4
2018-10-14 04:00:00 0 6512 0 0.33 0.03 0.62 100 0.2 0
2018-10-14 05:00:00 0 6494 0 -0.3 -0.87 0.04 100 -0.1 -0.7
2018-10-14 06:00:00 0 6474 0 -0.67 -1.07 -0.05 100 -0.5 -0.9
2018-10-14 07:00:00 0 6474 0 -1.23 -1.53 -0.95 100 -1.1 -1.4
2018-10-14 08:00:00 0 6474 0 -1.02 -1.56 -0.49 100 -0.8 -1.4
2018-10-14 09:00:00 0 6512 0 0.82 -0.86 3.33 100 0.8 -0.7
2018-10-14 10:00:00 0 6776 0 7.68 4.01 12.06 100 7.6 4
2018-10-14 11:00:00 0 6992 0 14.05 12.9 15.89 100 13.9 12.9
2018-10-14 12:00:00 0 6982 0 17.6 16 18.96 98.55 17.2 16
2018-10-14 13:00:00 0 6884 0 19.61 19 20.74 90.05 17.7 16.6
2018-10-14 14:00:00 0 6992 0 19.83 19.21 20.49 89.45 17.9 17
2018-10-14 15:00:00 0 6942 0 19.52 18.51 20.44 91.89 18 17.2
2018-10-14 16:00:00 0 6962 0 19.34 19.03 19.56 92.72 17.9 17.3
2018-10-14 17:00:00 0 6914 0 18.61 18.12 19.56 95.17 17.7 17.2
2018-10-14 18:00:00 0 6766 0 16.68 14.87 18.07 98.41 16.3 14.8
2018-10-14 19:00:00 0 6650 0 11.85 8.54 14.49 100 11.8 8.5
2018-10-14 20:00:00 0 6600 0 7.15 6.26 8.24 100 7.1 6.2
2018-10-14 21:00:00 0 6582 0 5.75 5.11 6.22 100 5.7 5.1
2018-10-14 22:00:00 0 6552 0 3.75 2.79 4.82 100 3.7 2.7
2018-10-14 23:00:00 0 6542 0 2.47 2.08 2.96 100 2.4 2
2018-10-15 00:00:00 0 6532 0 1.57 1 1.97 100 1.5 1
2018-10-15 01:00:00 0 6522 0 0.91 0.24 1.65 100 0.8 0.2
2018-10-15 02:00:00 0 6512 0 0.18 -0.24 0.72 100 0.1 -0.1
2018-10-15 03:00:00 0 6512 0 -0.45 -0.95 -0.16 100 -0.3 -0.8
2018-10-15 04:00:00 0 6502 0 -0.84 -1.02 -0.53 100 -0.7 -0.9
2018-10-15 05:00:00 0 6502 0 -0.72 -1.09 -0.4 100 -0.5 -0.9
2018-10-15 06:00:00 0 6474 0 -0.91 -1.25 -0.54 100 -0.7 -1.1
2018-10-15 07:00:00 0 6464 0 -0.77 -1.17 -0.38 100 -0.6 -1
2018-10-15 08:00:00 0 6454 0 -0.88 -1.17 -0.58 100 -0.7 -1
2018-10-15 09:00:00 0 6502 0 1.34 -0.57 3.89 100 1.3 -0.4
2018-10-15 10:00:00 0 6776 0 8.02 4.31 12.66 100 7.9 4.3
2018-10-15 11:00:00 0 6992 0 14.94 13.49 17.22 100 14.9 13.4
2018-10-15 12:00:00 0 6982 0 18.89 16.76 20.09 100 18.8 16.7
2018-10-15 13:00:00 0 6874 0 21.23 20.28 22.14 99.7 21 20.2
2018-10-15 14:00:00 0 6992 0 21.1 20.05 22.18 98.76 20.7 19.7